OPST

Details ICAO OPST (SKT)
Name Sialkot International Airport
Region Pakistan
Timezone Asia/Karachi (UTC+5.0)
Plans Departing 15
Arriving 19
Stats Elevation 837 ft / 255 m (AMSL)
Location 32.535501° 74.363177°
Runways 1
Magnetic Variation 2.249° E
Sunrise 2017-12-17 01:59:26 UTC / 2017-12-17 06:59:26 Local
Sunset 2017-12-17 12:00:27 UTC / 2017-12-17 17:00:27 Local
Advertisement - Login to hide

Runways

ID Width Length Bearing (true) Bearing (mag) Surface Threshold Offset Overrun Length
04 148 ft / 45 m 11,822 ft / 3,603 m 42.98° 40.73° Asphalt 0 ft / 0 m 1,027 ft / 313 m
22 148 ft / 45 m 11,822 ft / 3,603 m 222.99° 220.74° Asphalt 0 ft / 0 m 1,033 ft / 315 m

Map

Weather


0- 5 10 15 20 25 30 35+ Temperature / ° C

Clouds and Precipitation
Forecast for 2017-12-17 12:00 UTC. Updated an hour ago

Ground ~20,000 ft ~40,000 ft Winds

METAR

OPST 171200Z 27006KT 4000 HZ FEW100 18/07 Q1021 NOSIG RH49

TAF

Not found
Warning: Do not use this data for real-world aviation or navigation. No guarantee of current accuracy is given.